Time;durP1;ratioP1;P1;durP2;ratioP2;P2;SDS_P1;SDS_P2;PMS_P1;PMS_P2;Temp;Humidity;BMP_temperature;BMP_pressure;BME280_temperature;BME280_humidity;BME280_pressure;Samples;Min_cycle;Max_cycle;Signal;HPM_P1;HPM_P2
2022/12/29 00:01:28;;;;;;;26.77;18.17;;;;;;;6.34;93.29;95816.22;5054327;28;20446;-82
2022/12/29 00:03:55;;;;;;;34.73;19.40;;;;;;;6.38;93.45;95812.56;5054464;28;20443;-83
2022/12/29 00:06:21;;;;;;;28.90;18.93;;;;;;;6.38;94.02;95808.19;5053167;28;20442;-83
2022/12/29 00:08:48;;;;;;;29.27;18.57;;;;;;;6.43;93.40;95813.16;5019330;28;20461;-83
2022/12/29 00:11:20;;;;;;;35.83;18.73;;;;;;;6.37;93.73;95803.06;5054327;28;20504;-83
2022/12/29 00:16:34;;;;;;;27.60;18.07;;;;;;;6.42;92.84;95816.69;5053743;28;20610;-82
2022/12/29 00:19:01;;;;;;;25.93;18.10;;;;;;;6.32;93.17;95813.69;5053445;28;20459;-83
2022/12/29 00:35:29;;;;;;;33.40;20.87;;;;;;;5.90;93.42;95822.00;5011911;28;20487;-83
2022/12/29 00:46:12;;;;;;;38.70;21.87;;;;;;;5.89;92.26;95823.78;4984136;28;20474;-83
2022/12/29 00:51:24;;;;;;;31.20;21.47;;;;;;;5.86;92.81;95817.84;5011688;28;20811;-83
2022/12/29 00:53:51;;;;;;;37.13;21.90;;;;;;;5.87;93.39;95822.16;5011336;28;20957;-83
2022/12/29 00:56:18;;;;;;;31.90;21.90;;;;;;;5.78;93.07;95826.06;5011571;28;20943;-84
2022/12/29 00:58:44;;;;;;;40.13;25.87;;;;;;;5.70;93.36;95828.19;5011301;28;20448;-83
2022/12/29 01:01:11;;;;;;;35.47;24.57;;;;;;;5.68;93.28;95831.81;5011414;28;20447;-83
2022/12/29 01:03:39;;;;;;;44.63;28.10;;;;;;;5.63;93.44;95826.84;5011658;28;20452;-82
2022/12/29 01:06:09;;;;;;;48.47;26.83;;;;;;;5.60;94.06;95835.66;5014603;28;20514;-83
2022/12/29 01:08:36;;;;;;;48.30;28.23;;;;;;;5.64;95.45;95820.72;5053078;28;20495;-83
2022/12/29 01:11:04;;;;;;;44.70;28.90;;;;;;;5.66;95.40;95812.81;5053080;28;20932;-83
2022/12/29 01:13:31;;;;;;;50.73;28.10;;;;;;;5.62;95.19;95806.09;5053223;28;20446;-83
2022/12/29 01:15:58;;;;;;;45.87;27.90;;;;;;;5.62;94.81;95814.72;5053176;28;20536;-83
2022/12/29 01:18:26;;;;;;;40.63;26.67;;;;;;;5.68;94.78;95816.19;5056578;28;20496;-83
2022/12/29 01:21:01;;;;;;;40.70;26.97;;;;;;;5.71;94.21;95810.81;5056797;28;20442;-83
2022/12/29 01:23:28;;;;;;;50.53;31.30;;;;;;;5.73;93.61;95803.75;5057023;28;20550;-84
2022/12/29 01:25:55;;;;;;;56.78;33.58;;;;;;;5.71;94.58;95808.22;5056877;28;20451;-83
2022/12/29 01:28:22;;;;;;;63.83;35.73;;;;;;;5.78;93.72;95809.56;5056862;28;20211;-82
2022/12/29 01:30:49;;;;;;;78.53;39.17;;;;;;;5.70;93.28;95809.97;5056806;28;20454;-83
2022/12/29 01:33:16;;;;;;;77.37;40.70;;;;;;;5.53;93.69;95818.66;5057101;28;20453;-83
2022/12/29 01:35:43;;;;;;;82.70;42.17;;;;;;;5.52;94.00;95803.94;5056563;28;20489;-83
2022/12/29 01:38:11;;;;;;;67.13;36.33;;;;;;;5.27;94.99;95806.09;5056410;28;20464;-83
2022/12/29 01:40:44;;;;;;;54.23;33.90;;;;;;;5.31;94.68;95797.22;5038158;28;20446;-83
2022/12/29 01:43:13;;;;;;;59.00;35.00;;;;;;;5.35;94.62;95793.53;5056263;28;20481;-83
2022/12/29 01:45:44;;;;;;;65.07;37.03;;;;;;;5.33;94.22;95802.34;5056995;28;20540;-83
2022/12/29 01:48:12;;;;;;;60.73;35.70;;;;;;;5.32;94.35;95798.91;5056600;28;20453;-83
2022/12/29 01:50:42;;;;;;;51.90;32.50;;;;;;;5.28;94.47;95797.38;5056301;28;20449;-83
2022/12/29 01:53:14;;;;;;;52.47;32.47;;;;;;;5.28;94.17;95793.00;5056072;28;20931;-83
2022/12/29 01:55:45;;;;;;;53.77;30.67;;;;;;;5.31;94.20;95792.00;5056438;28;20539;-83
2022/12/29 01:58:15;;;;;;;49.33;29.63;;;;;;;5.30;94.07;95790.31;5056116;28;20847;-83
2022/12/29 02:00:42;;;;;;;53.30;31.50;;;;;;;5.35;93.96;95790.94;5056541;28;20515;-83
2022/12/29 02:03:10;;;;;;;49.80;29.83;;;;;;;5.37;93.82;95793.47;5056158;28;20453;-83
2022/12/29 02:05:43;;;;;;;42.50;27.47;;;;;;;5.36;93.10;95791.78;5056249;28;20877;-83
2022/12/29 02:08:12;;;;;;;47.90;28.63;;;;;;;5.37;93.07;95785.66;5056337;28;20450;-83
2022/12/29 02:10:40;;;;;;;44.53;28.37;;;;;;;5.38;92.04;95785.56;5055893;28;20458;-83
2022/12/29 02:13:07;;;;;;;47.00;27.70;;;;;;;5.34;92.44;95786.66;5055966;28;20458;-83
2022/12/29 02:15:46;;;;;;;42.40;25.17;;;;;;;5.34;93.25;95776.22;5056039;28;20494;-83
2022/12/29 02:18:24;;;;;;;41.37;25.30;;;;;;;5.33;93.32;95779.75;5038818;28;20529;-83
2022/12/29 02:21:23;;;;;;;39.90;22.70;;;;;;;5.38;92.79;95784.72;5055684;28;20507;-83
2022/12/29 02:24:10;;;;;;;36.23;22.40;;;;;;;5.40;93.44;95775.09;5055883;28;20450;-83
2022/12/29 02:26:58;;;;;;;39.77;23.43;;;;;;;5.40;92.65;95780.28;5056086;28;20445;-82
2022/12/29 02:29:51;;;;;;;36.17;22.20;;;;;;;5.37;93.86;95770.03;5055205;28;20441;-83
2022/12/29 02:32:28;;;;;;;31.40;20.60;;;;;;;5.44;93.52;95776.59;5055788;28;20500;-83
2022/12/29 02:35:02;;;;;;;36.97;20.83;;;;;;;5.47;94.57;95772.09;5055887;28;20446;-83
2022/12/29 02:37:34;;;;;;;28.80;17.37;;;;;;;5.45;95.29;95766.13;5055899;28;20567;-83
2022/12/29 02:40:08;;;;;;;26.70;17.70;;;;;;;5.51;95.22;95765.00;5055750;28;20802;-82
2022/12/29 02:42:42;;;;;;;34.30;20.17;;;;;;;5.53;96.14;95761.38;5055200;28;20446;-83
2022/12/29 02:45:17;;;;;;;33.80;20.03;;;;;;;5.60;95.80;95759.31;5055643;28;20836;-83
2022/12/29 02:47:52;;;;;;;24.40;18.50;;;;;;;5.70;96.39;95765.72;5055449;28;20457;-83
2022/12/29 02:50:24;;;;;;;32.27;19.50;;;;;;;5.69;95.49;95774.44;5055573;28;20452;-83
2022/12/29 02:52:58;;;;;;;28.83;19.27;;;;;;;5.66;94.71;95772.00;5055338;28;20453;-82
2022/12/29 02:55:24;;;;;;;34.17;20.37;;;;;;;5.63;95.02;95763.50;5055011;28;21002;-83
2022/12/29 02:58:16;;;;;;;28.97;19.70;;;;;;;5.64;94.37;95757.38;5055492;28;20496;-83
2022/12/29 03:00:56;;;;;;;30.57;21.00;;;;;;;5.66;94.92;95771.16;5055290;28;20204;-83
2022/12/29 03:03:37;;;;;;;28.90;18.03;;;;;;;5.69;94.85;95760.59;5055348;28;20445;-82
2022/12/29 03:06:26;;;;;;;28.47;18.60;;;;;;;5.72;95.66;95761.25;5054858;28;20458;-83
2022/12/29 03:09:00;;;;;;;32.23;19.30;;;;;;;5.76;96.01;95759.34;5054931;28;20446;-83
2022/12/29 03:17:27;;;;;;;32.93;20.77;;;;;;;5.79;96.17;95759.19;5055044;28;20668;-82
2022/12/29 03:20:02;;;;;;;39.33;18.37;;;;;;;5.80;95.35;95763.50;5054681;28;20446;-82
2022/12/29 03:22:31;;;;;;;29.17;19.00;;;;;;;5.76;95.09;95767.16;5054641;28;20507;-82
2022/12/29 03:25:02;;;;;;;30.63;19.90;;;;;;;5.65;96.28;95765.09;5036541;28;20499;-83
2022/12/29 03:27:33;;;;;;;24.07;17.40;;;;;;;5.70;96.29;95762.25;5054783;28;20454;-83
2022/12/29 03:30:03;;;;;;;29.17;20.30;;;;;;;5.65;96.50;95766.88;5054668;28;20495;-83
2022/12/29 03:32:34;;;;;;;37.07;23.60;;;;;;;5.18;96.96;95765.75;5054456;28;20446;-83
2022/12/29 03:35:03;;;;;;;34.60;24.97;;;;;;;4.84;97.67;95765.72;5054513;28;20446;-83
2022/12/29 03:37:36;;;;;;;38.23;25.93;;;;;;;4.81;99.16;95763.25;5054461;28;20566;-83
2022/12/29 03:40:04;;;;;;;41.17;26.60;;;;;;;4.64;99.01;95761.50;5054382;28;20469;-83
2022/12/29 03:42:35;;;;;;;40.73;23.60;;;;;;;4.80;99.02;95762.41;5036111;28;20450;-82
2022/12/29 03:45:02;;;;;;;36.60;23.50;;;;;;;4.88;98.32;95762.88;5054829;28;20820;-83
2022/12/29 03:47:29;;;;;;;37.33;22.67;;;;;;;4.89;98.77;95767.16;5054531;28;20449;-83
2022/12/29 03:49:55;;;;;;;35.87;22.83;;;;;;;4.89;97.66;95769.75;5054308;28;20438;-83
2022/12/29 03:52:24;;;;;;;49.53;22.93;;;;;;;4.83;97.81;95775.28;5035723;28;20496;-82
2022/12/29 03:54:50;;;;;;;31.50;21.47;;;;;;;4.85;98.24;95776.03;5054609;28;20784;-83
2022/12/29 03:57:17;;;;;;;28.77;21.93;;;;;;;4.91;97.50;95774.88;5053834;28;20847;-82
2022/12/29 03:59:44;;;;;;;36.30;21.47;;;;;;;4.96;97.74;95778.13;5055079;28;20449;-83
2022/12/29 04:02:10;;;;;;;34.57;22.20;;;;;;;5.00;97.81;95778.81;5048124;28;20449;-83
2022/12/29 04:04:37;;;;;;;32.23;23.63;;;;;;;5.05;96.49;95776.84;5053163;28;20829;-82
2022/12/29 04:07:04;;;;;;;36.70;22.93;;;;;;;4.97;96.36;95772.84;5053375;28;20450;-83
2022/12/29 04:09:32;;;;;;;30.07;21.60;;;;;;;4.95;95.43;95786.84;5053246;28;20446;-88
2022/12/29 04:11:59;;;;;;;43.03;25.57;;;;;;;4.97;95.87;95785.88;5055824;28;20928;-84
2022/12/29 04:14:26;;;;;;;43.90;27.10;;;;;;;5.02;96.34;95775.22;5040517;28;20971;-83
2022/12/29 04:16:52;;;;;;;40.63;25.10;;;;;;;5.04;95.34;95781.19;5037191;28;20887;-83
2022/12/29 04:19:19;;;;;;;43.80;30.17;;;;;;;5.07;95.56;95780.19;5053942;28;20519;-84
2022/12/29 04:21:46;;;;;;;53.13;34.50;;;;;;;5.08;95.13;95782.72;5053506;28;20932;-84
2022/12/29 04:24:12;;;;;;;45.30;32.80;;;;;;;5.04;94.22;95781.19;5053661;28;20834;-81
2022/12/29 04:26:41;;;;;;;46.73;31.07;;;;;;;5.02;94.42;95782.19;5053346;28;20503;-82
2022/12/29 04:29:08;;;;;;;45.40;28.80;;;;;;;5.00;94.26;95781.44;5053394;28;20516;-82
2022/12/29 04:31:35;;;;;;;47.03;26.40;;;;;;;5.01;92.90;95789.16;5053335;28;20449;-81
2022/12/29 04:34:01;;;;;;;37.23;24.20;;;;;;;5.03;94.14;95786.47;5053507;28;20993;-81
2022/12/29 04:36:28;;;;;;;37.73;24.57;;;;;;;4.98;94.76;95782.34;5053111;28;20485;-81
2022/12/29 04:38:55;;;;;;;35.23;23.27;;;;;;;4.98;94.65;95790.16;5053157;28;20442;-82
2022/12/29 04:41:22;;;;;;;39.10;23.90;;;;;;;4.97;93.49;95796.25;5053250;28;20462;-82
2022/12/29 04:43:50;;;;;;;36.40;22.30;;;;;;;4.95;93.16;95795.50;5058856;28;20480;-81
2022/12/29 04:46:18;;;;;;;35.53;22.90;;;;;;;4.89;92.74;95790.56;5069807;28;20453;-81
2022/12/29 04:48:45;;;;;;;32.50;20.57;;;;;;;4.89;94.24;95806.16;5040561;28;20437;-82
2022/12/29 04:51:14;;;;;;;36.47;22.33;;;;;;;4.90;93.30;95807.84;5029745;28;21144;-83
2022/12/29 04:53:41;;;;;;;31.00;21.77;;;;;;;4.90;94.06;95813.06;5059798;28;20927;-81
2022/12/29 04:56:08;;;;;;;40.73;24.37;;;;;;;4.85;94.20;95807.22;5069680;28;20839;-82
2022/12/29 04:58:37;;;;;;;36.30;23.50;;;;;;;4.86;95.33;95811.53;5059893;28;20981;-82
2022/12/29 05:01:05;;;;;;;33.17;21.17;;;;;;;4.78;95.03;95800.66;5033364;28;20484;-81
2022/12/29 05:03:31;;;;;;;34.20;20.20;;;;;;;4.77;95.77;95806.78;5059100;28;20453;-81
2022/12/29 05:05:58;;;;;;;32.17;20.27;;;;;;;4.80;96.86;95806.63;5057762;28;20522;-81
2022/12/29 05:08:25;;;;;;;35.50;18.73;;;;;;;4.82;96.50;95806.53;5059745;28;20452;-81
2022/12/29 05:10:52;;;;;;;27.67;16.90;;;;;;;4.85;98.04;95807.22;5059379;28;20437;-81
2022/12/29 05:13:19;;;;;;;31.30;18.20;;;;;;;4.89;98.08;95808.78;5072963;28;20507;-82
2022/12/29 05:15:50;;;;;;;31.90;19.20;;;;;;;4.91;98.26;95808.69;5072859;28;20448;-84
2022/12/29 05:18:18;;;;;;;27.57;17.57;;;;;;;4.97;99.37;95801.47;5073184;28;20566;-82
2022/12/29 05:20:45;;;;;;;27.33;18.43;;;;;;;5.02;99.32;95793.44;5037706;28;20444;-83
2022/12/29 05:23:12;;;;;;;26.67;18.40;;;;;;;5.06;99.48;95807.97;5072776;28;20867;-83
2022/12/29 05:25:39;;;;;;;25.80;16.47;;;;;;;5.08;99.78;95805.28;5072890;28;20444;-83
2022/12/29 05:28:06;;;;;;;29.50;18.20;;;;;;;5.09;99.39;95802.63;5044905;28;20848;-84
2022/12/29 05:30:33;;;;;;;31.30;17.97;;;;;;;5.12;98.76;95802.47;5071067;28;20946;-84
2022/12/29 05:32:59;;;;;;;29.17;17.80;;;;;;;5.14;99.90;95802.38;5072631;28;20483;-84
2022/12/29 05:35:28;;;;;;;27.97;19.13;;;;;;;5.19;100.00;95798.63;5072607;28;20453;-83
2022/12/29 05:37:54;;;;;;;33.00;18.50;;;;;;;5.24;100.00;95801.03;5072946;28;20480;-83
2022/12/29 05:40:21;;;;;;;25.50;17.07;;;;;;;5.23;99.72;95805.41;5072825;28;20445;-84
2022/12/29 05:42:48;;;;;;;27.93;16.90;;;;;;;5.26;99.76;95807.00;5072512;28;20448;-85
2022/12/29 05:45:15;;;;;;;32.23;19.70;;;;;;;5.21;100.00;95806.41;5072957;28;20495;-86
2022/12/29 05:47:42;;;;;;;27.43;17.83;;;;;;;5.27;100.00;95808.69;5072969;28;20494;-84
2022/12/29 05:50:09;;;;;;;29.10;18.57;;;;;;;5.24;100.00;95804.47;5073008;28;20502;-84
2022/12/29 05:52:46;;;;;;;32.83;19.50;;;;;;;5.33;100.00;95810.97;5074234;28;20444;-82
2022/12/29 05:55:13;;;;;;;23.33;16.33;;;;;;;5.40;100.00;95814.97;5072994;28;20910;-81
2022/12/29 05:57:40;;;;;;;28.67;17.50;;;;;;;5.47;100.00;95811.13;5072933;28;20543;-84
2022/12/29 06:00:08;;;;;;;29.77;18.27;;;;;;;5.47;100.00;95813.72;5072873;28;20448;-83
2022/12/29 06:02:35;;;;;;;33.53;18.70;;;;;;;5.52;99.52;95816.97;5073950;28;20456;-82
2022/12/29 06:05:02;;;;;;;32.13;18.60;;;;;;;5.53;99.69;95823.03;5075655;28;20440;-80
2022/12/29 06:07:31;;;;;;;28.23;17.17;;;;;;;5.53;99.82;95831.66;5076831;28;20490;-83
2022/12/29 06:10:00;;;;;;;25.70;16.60;;;;;;;5.58;99.36;95832.28;5077638;28;20441;-84
2022/12/29 06:12:26;;;;;;;27.40;17.80;;;;;;;5.58;99.29;95836.66;5077071;28;20513;-83
2022/12/29 06:14:53;;;;;;;29.00;18.17;;;;;;;5.56;99.18;95828.91;5040996;28;20429;-83
2022/12/29 06:17:20;;;;;;;29.07;17.57;;;;;;;5.62;99.99;95832.13;5076232;28;20488;-82
2022/12/29 06:19:47;;;;;;;34.20;17.90;;;;;;;5.67;99.78;95835.31;5035930;28;20533;-82
2022/12/29 06:22:13;;;;;;;29.90;19.23;;;;;;;5.72;100.00;95836.78;5029873;28;20448;-84
2022/12/29 06:24:40;;;;;;;29.77;18.10;;;;;;;5.70;99.50;95830.81;5076287;28;20775;-82
2022/12/29 06:27:08;;;;;;;27.47;18.47;;;;;;;5.68;98.35;95832.66;5076017;28;20437;-81
2022/12/29 06:29:36;;;;;;;28.60;18.57;;;;;;;5.65;98.74;95837.16;5062155;28;20453;-80
2022/12/29 06:32:04;;;;;;;25.90;17.77;;;;;;;5.55;98.96;95824.63;5075745;28;20453;-82
2022/12/29 06:34:31;;;;;;;29.93;16.70;;;;;;;5.55;99.03;95823.78;5071123;28;20445;-81
2022/12/29 06:36:57;;;;;;;35.27;20.40;;;;;;;5.58;99.97;95839.25;5075143;28;20484;-81
2022/12/29 06:39:24;;;;;;;29.40;19.37;;;;;;;5.59;99.37;95839.16;5074603;28;20499;-80
2022/12/29 06:41:53;;;;;;;32.60;18.97;;;;;;;5.62;99.93;95837.31;5062350;28;20441;-82
2022/12/29 06:44:22;;;;;;;31.80;20.73;;;;;;;5.66;99.28;95831.88;5074627;28;20563;-81
2022/12/29 06:46:49;;;;;;;31.23;20.00;;;;;;;5.67;99.94;95833.56;5074715;28;20473;-82
2022/12/29 06:49:17;;;;;;;32.93;17.07;;;;;;;5.64;99.11;95838.09;5074884;28;20495;-82
2022/12/29 06:51:44;;;;;;;35.50;19.23;;;;;;;5.63;99.85;95833.81;5074706;28;20523;-80
2022/12/29 06:54:11;;;;;;;25.50;16.63;;;;;;;5.68;99.25;95842.22;5074749;28;20456;-81
2022/12/29 06:56:37;;;;;;;33.40;18.80;;;;;;;5.72;98.94;95849.78;5038989;28;20441;-84
2022/12/29 06:59:04;;;;;;;31.63;18.60;;;;;;;5.72;100.00;95848.94;5075266;28;20448;-82
2022/12/29 07:01:33;;;;;;;26.90;18.23;;;;;;;5.79;100.00;95852.94;5070631;28;20461;-83
2022/12/29 07:03:59;;;;;;;31.10;18.23;;;;;;;5.86;100.00;95847.34;5055754;28;20505;-83
2022/12/29 07:06:26;;;;;;;30.30;18.20;;;;;;;5.89;99.87;95847.22;5053374;28;20511;-83
2022/12/29 07:08:54;;;;;;;32.40;17.30;;;;;;;5.88;99.35;95849.88;5075370;28;20518;-82
2022/12/29 07:11:22;;;;;;;32.87;21.03;;;;;;;5.93;98.83;95842.69;5072133;28;20453;-82
2022/12/29 07:13:49;;;;;;;27.63;16.77;;;;;;;6.00;99.32;95851.88;5074355;28;20823;-83
2022/12/29 07:16:16;;;;;;;31.10;18.37;;;;;;;6.07;98.43;95855.88;5074662;28;20449;-82
2022/12/29 07:18:44;;;;;;;26.53;16.90;;;;;;;6.18;99.21;95848.31;5074463;28;20485;-82
2022/12/29 07:21:11;;;;;;;30.20;18.63;;;;;;;6.31;98.76;95843.28;5074183;28;20450;-82
2022/12/29 07:23:38;;;;;;;23.50;16.03;;;;;;;6.45;98.55;95845.19;5074462;28;20792;-82
2022/12/29 07:26:07;;;;;;;24.20;15.93;;;;;;;6.52;96.95;95852.59;5073760;28;20456;-82
2022/12/29 07:28:37;;;;;;;26.60;17.50;;;;;;;6.47;95.80;95848.56;5074287;28;20450;-82
2022/12/29 07:31:04;;;;;;;39.37;24.50;;;;;;;6.44;97.00;95848.72;5054878;28;20453;-82
2022/12/29 07:33:34;;;;;;;28.90;21.70;;;;;;;6.52;95.14;95847.38;5081375;28;20472;-82
2022/12/29 07:36:02;;;;;;;32.30;21.57;;;;;;;6.59;94.83;95844.44;5079013;28;20449;-82
2022/12/29 07:38:29;;;;;;;35.93;23.87;;;;;;;6.58;95.35;95851.41;5074234;28;20483;-82
2022/12/29 07:40:58;;;;;;;36.13;23.20;;;;;;;6.68;95.34;95855.22;5074389;28;20498;-82
2022/12/29 07:43:26;;;;;;;33.17;22.90;;;;;;;6.78;94.42;95864.22;5073916;28;20594;-82
2022/12/29 07:45:52;;;;;;;34.00;22.47;;;;;;;6.89;93.95;95854.97;5073639;28;20499;-81
2022/12/29 07:48:19;;;;;;;26.77;18.10;;;;;;;6.76;93.85;95850.44;5073945;28;20724;-83
2022/12/29 07:50:46;;;;;;;31.37;18.57;;;;;;;6.82;94.47;95857.06;5073172;28;20442;-82
2022/12/29 07:53:14;;;;;;;26.80;17.33;;;;;;;6.86;93.86;95855.13;5073453;28;20449;-83
2022/12/29 07:55:41;;;;;;;26.10;17.23;;;;;;;6.85;94.44;95854.28;5073290;28;20449;-83
2022/12/29 07:58:08;;;;;;;30.00;19.00;;;;;;;6.83;94.34;95850.94;5073485;28;20486;-83
2022/12/29 08:00:35;;;;;;;29.13;17.03;;;;;;;6.96;94.05;95856.34;5073205;28;20503;-82
2022/12/29 08:03:02;;;;;;;32.17;16.93;;;;;;;7.10;93.81;95866.84;5038184;28;20443;-83
2022/12/29 08:05:29;;;;;;;31.97;18.40;;;;;;;7.20;93.81;95864.56;5072977;28;20516;-82
2022/12/29 08:07:58;;;;;;;42.23;23.33;;;;;;;7.28;92.71;95859.75;5074051;28;20454;-83
2022/12/29 08:10:26;;;;;;;30.20;17.70;;;;;;;7.22;91.59;95873.97;5072951;28;20580;-82
2022/12/29 08:12:53;;;;;;;24.67;16.23;;;;;;;7.16;91.54;95874.31;5073749;28;20495;-83
2022/12/29 08:15:20;;;;;;;24.37;16.07;;;;;;;7.03;91.68;95871.56;5073040;28;20504;-83
2022/12/29 08:17:46;;;;;;;29.17;18.50;;;;;;;6.97;92.35;95877.13;5072931;28;20955;-82
2022/12/29 08:20:13;;;;;;;33.50;21.10;;;;;;;6.88;92.67;95874.16;5072934;28;20516;-83
2022/12/29 08:22:41;;;;;;;29.00;18.97;;;;;;;6.88;93.44;95871.53;5072988;28;20887;-83
2022/12/29 08:25:09;;;;;;;32.33;18.87;;;;;;;6.99;93.50;95871.81;5073403;28;20485;-83
2022/12/29 08:27:37;;;;;;;29.53;19.30;;;;;;;7.13;93.90;95869.28;5071866;28;20452;-83
2022/12/29 08:30:05;;;;;;;29.20;18.30;;;;;;;7.20;93.40;95867.16;5072758;28;20454;-82
2022/12/29 08:32:32;;;;;;;33.67;20.00;;;;;;;7.21;92.34;95864.47;5072781;28;20497;-83
2022/12/29 08:34:58;;;;;;;38.10;21.90;;;;;;;6.93;93.77;95861.69;5072577;28;20450;-82
2022/12/29 08:37:25;;;;;;;39.07;23.43;;;;;;;7.14;93.17;95852.69;5072884;28;20788;-84
2022/12/29 08:39:52;;;;;;;35.37;22.20;;;;;;;7.26;93.07;95854.63;5072945;28;20862;-83
2022/12/29 08:42:19;;;;;;;35.40;22.47;;;;;;;7.24;92.29;95850.44;5072563;28;20491;-82
2022/12/29 08:44:47;;;;;;;42.93;25.37;;;;;;;7.24;92.30;95853.88;5072496;28;20996;-83
2022/12/29 08:47:15;;;;;;;40.60;24.33;;;;;;;7.33;92.77;95855.13;5070532;28;20449;-82
2022/12/29 08:49:41;;;;;;;38.73;24.17;;;;;;;7.24;92.50;95859.09;5072907;28;20439;-82
2022/12/29 08:52:08;;;;;;;37.87;23.77;;;;;;;7.36;92.94;95858.41;5072522;28;20465;-82
2022/12/29 08:54:35;;;;;;;33.63;21.93;;;;;;;7.41;92.91;95856.34;5072923;28;20454;-82
2022/12/29 08:57:02;;;;;;;30.40;20.37;;;;;;;7.39;92.68;95866.06;5072372;28;20452;-82
2022/12/29 08:59:28;;;;;;;32.93;22.10;;;;;;;7.47;92.06;95856.00;5072588;28;20495;-82
2022/12/29 09:01:57;;;;;;;32.80;20.87;;;;;;;7.57;92.29;95840.66;5072293;28;20513;-83
2022/12/29 09:04:24;;;;;;;34.40;22.30;;;;;;;7.71;92.42;95845.91;5073102;28;20841;-82
2022/12/29 09:06:51;;;;;;;43.00;25.37;;;;;;;7.82;92.10;95842.69;5072829;28;20533;-81
2022/12/29 09:09:18;;;;;;;47.70;28.20;;;;;;;7.91;91.13;95842.16;5073101;28;20448;-83
2022/12/29 09:11:44;;;;;;;57.80;29.37;;;;;;;7.97;90.50;95847.00;5073524;28;20950;-87
2022/12/29 09:14:12;;;;;;;59.50;31.97;;;;;;;8.01;90.44;95838.03;5073365;28;20827;-81
2022/12/29 09:16:39;;;;;;;56.30;30.50;;;;;;;8.08;90.31;95841.97;5072850;28;20441;-80
2022/12/29 09:19:07;;;;;;;43.97;25.60;;;;;;;8.15;89.86;95839.84;5072092;28;20488;-79
2022/12/29 09:21:34;;;;;;;39.90;25.07;;;;;;;8.24;89.51;95833.22;5072932;28;20504;-83
2022/12/29 09:24:00;;;;;;;40.53;24.60;;;;;;;8.32;88.91;95831.81;5072677;28;20504;-80
2022/12/29 09:26:27;;;;;;;34.83;23.10;;;;;;;8.42;88.39;95833.91;5072851;28;20475;-82
2022/12/29 09:28:54;;;;;;;42.37;28.07;;;;;;;8.48;87.94;95837.00;5072520;28;20453;-79
2022/12/29 09:31:20;;;;;;;46.20;27.73;;;;;;;8.52;88.44;95833.25;5072857;28;20444;-81
2022/12/29 09:33:47;;;;;;;40.90;26.67;;;;;;;8.61;88.36;95827.44;5053958;28;20454;-83
2022/12/29 09:36:18;;;;;;;44.40;27.57;;;;;;;8.63;88.23;95825.56;5072469;28;20506;-80
2022/12/29 09:38:45;;;;;;;50.80;28.83;;;;;;;8.71;88.15;95827.72;5074807;28;20533;-80
2022/12/29 09:41:18;;;;;;;38.03;26.10;;;;;;;8.82;87.95;95824.44;5076355;28;20493;-81
2022/12/29 09:44:04;;;;;;;35.97;26.03;;;;;;;8.90;87.22;95820.38;5076207;28;21036;-79
2022/12/29 09:46:38;;;;;;;48.73;27.80;;;;;;;8.91;87.24;95816.81;5076430;28;20452;-78
2022/12/29 09:49:16;;;;;;;38.70;27.17;;;;;;;9.04;87.67;95816.91;5076213;28;20911;-79
2022/12/29 09:51:49;;;;;;;46.63;29.37;;;;;;;9.14;86.51;95812.75;5076342;28;20497;-79
2022/12/29 09:54:38;;;;;;;45.97;31.00;;;;;;;9.23;85.98;95806.91;5076183;28;20453;-78
2022/12/29 09:57:06;;;;;;;43.50;28.37;;;;;;;9.32;85.25;95811.56;5033837;28;20534;-78
2022/12/29 09:59:41;;;;;;;46.10;30.90;;;;;;;9.36;85.04;95804.34;5033611;28;20553;-80
2022/12/29 10:02:25;;;;;;;42.43;28.83;;;;;;;9.47;85.16;95795.78;5030188;28;20594;-79
2022/12/29 10:04:52;;;;;;;40.97;28.07;;;;;;;9.62;84.05;95793.00;5013926;28;20443;-81
2022/12/29 10:07:32;;;;;;;43.43;30.53;;;;;;;9.71;82.83;95793.31;5013801;28;20460;-80
2022/12/29 10:10:06;;;;;;;59.27;31.80;;;;;;;9.74;82.79;95788.69;4965288;28;20447;-78
2022/12/29 10:12:48;;;;;;;46.27;29.13;;;;;;;9.77;82.62;95793.72;5017701;28;20450;-80
2022/12/29 10:15:35;;;;;;;47.80;32.70;;;;;;;9.77;81.59;95783.25;5014070;28;20443;-80
2022/12/29 10:18:11;;;;;;;43.67;30.17;;;;;;;9.54;83.07;95783.94;5013757;28;20866;-78
2022/12/29 10:20:49;;;;;;;49.50;31.57;;;;;;;9.57;83.91;95784.59;5013756;28;20450;-79
2022/12/29 10:23:27;;;;;;;48.03;30.20;;;;;;;9.63;84.01;95770.25;5013637;28;20850;-79
2022/12/29 10:25:56;;;;;;;46.23;30.07;;;;;;;9.73;84.13;95775.69;5014213;28;20505;-79
2022/12/29 10:28:25;;;;;;;46.23;30.07;;;;;;;9.66;82.78;95784.91;5014169;28;20455;-81
2022/12/29 10:30:54;;;;;;;50.87;30.37;;;;;;;9.58;82.80;95780.19;5014076;28;20464;-81
2022/12/29 10:33:25;;;;;;;43.27;29.40;;;;;;;9.48;83.02;95771.25;5016758;28;20458;-81
2022/12/29 10:35:52;;;;;;;52.93;29.90;;;;;;;9.57;83.07;95768.03;5056243;28;20853;-81
2022/12/29 10:38:28;;;;;;;43.50;31.47;;;;;;;9.60;83.04;95771.28;5055447;28;21238;-80
2022/12/29 10:41:00;;;;;;;47.33;30.87;;;;;;;9.57;83.11;95763.63;5055865;28;20849;-86
2022/12/29 10:43:29;;;;;;;50.47;30.00;;;;;;;9.36;83.53;95758.97;5055351;28;20473;-80
2022/12/29 10:45:59;;;;;;;54.83;31.90;;;;;;;9.27;83.51;95755.19;5055048;28;20446;-79
2022/12/29 10:48:30;;;;;;;52.17;29.70;;;;;;;9.47;84.06;95759.94;5055168;28;20457;-79
2022/12/29 10:50:59;;;;;;;44.23;29.10;;;;;;;9.57;84.02;95755.78;5054409;28;20492;-79
2022/12/29 10:53:32;;;;;;;45.83;30.20;;;;;;;9.68;82.98;95748.97;5055008;28;20438;-82
2022/12/29 10:56:01;;;;;;;39.60;28.90;;;;;;;9.81;83.67;95742.78;5055331;28;20541;-80
2022/12/29 10:58:31;;;;;;;43.27;30.73;;;;;;;9.93;81.96;95747.19;5056078;28;20536;-81
2022/12/29 11:00:59;;;;;;;42.23;30.90;;;;;;;10.01;82.41;95749.28;5075076;28;20535;-80
2022/12/29 11:03:48;;;;;;;46.83;29.27;;;;;;;10.11;81.72;95733.75;5061607;28;20482;-80
2022/12/29 11:06:22;;;;;;;54.10;29.63;;;;;;;10.05;82.07;95724.53;5055097;28;20442;-81
2022/12/29 11:08:56;;;;;;;44.23;29.07;;;;;;;10.20;82.31;95725.25;5054509;28;20453;-79
2022/12/29 11:11:26;;;;;;;41.57;27.70;;;;;;;10.33;81.64;95731.34;5054858;28;20447;-81
2022/12/29 11:13:59;;;;;;;47.33;27.80;;;;;;;10.41;80.71;95720.31;5054714;28;20477;-82
2022/12/29 11:16:34;;;;;;;44.07;28.53;;;;;;;10.38;80.42;95716.09;5055393;28;20538;-81
2022/12/29 11:19:02;;;;;;;36.93;25.00;;;;;;;10.39;80.27;95717.78;5056918;28;20495;-78
2022/12/29 11:21:33;;;;;;;40.97;27.90;;;;;;;10.34;80.28;95713.81;5074617;28;20441;-80
2022/12/29 11:24:04;;;;;;;39.17;28.43;;;;;;;10.28;80.97;95709.84;5055899;28;20956;-80
2022/12/29 11:26:31;;;;;;;42.50;25.67;;;;;;;10.32;79.99;95713.91;5074401;28;20807;-80
2022/12/29 11:29:23;;;;;;;35.70;23.30;;;;;;;10.32;80.96;95708.69;5059197;28;20462;-79
2022/12/29 11:31:52;;;;;;;31.07;19.53;;;;;;;10.35;80.33;95711.06;5031924;28;20455;-79
2022/12/29 11:34:21;;;;;;;28.30;20.80;;;;;;;10.45;79.75;95706.03;5032169;28;20509;-79
2022/12/29 11:36:50;;;;;;;34.67;23.77;;;;;;;10.46;80.12;95705.09;5032186;28;20454;-78
2022/12/29 11:39:35;;;;;;;42.90;27.50;;;;;;;10.42;81.06;95706.25;5031999;28;20972;-79
2022/12/29 11:42:03;;;;;;;35.10;26.03;;;;;;;10.57;79.48;95713.03;5039241;28;20456;-79
2022/12/29 11:44:37;;;;;;;67.40;34.83;;;;;;;10.67;80.86;95706.16;5051442;28;20498;-79
2022/12/29 11:47:06;;;;;;;35.47;25.57;;;;;;;10.76;79.38;95699.41;5018726;28;20522;-79
2022/12/29 11:49:33;;;;;;;41.10;25.60;;;;;;;10.71;78.40;95704.16;5051757;28;20520;-79
2022/12/29 11:52:01;;;;;;;57.80;27.90;;;;;;;10.73;79.16;95692.59;5047110;28;20452;-78
2022/12/29 11:54:37;;;;;;;34.37;25.70;;;;;;;10.84;79.27;95702.31;5046774;28;21425;-78
2022/12/29 11:57:13;;;;;;;45.20;25.87;;;;;;;10.81;79.58;95692.88;5040338;28;20463;-78
2022/12/29 11:59:49;;;;;;;37.50;25.70;;;;;;;10.88;78.10;95695.88;4998418;28;20559;-79
2022/12/29 12:02:41;;;;;;;47.83;30.00;;;;;;;10.80;78.54;95695.63;5047869;28;20540;-78
2022/12/29 12:05:20;;;;;;;40.37;28.00;;;;;;;10.83;78.57;95695.41;5049714;28;20454;-80
2022/12/29 12:07:50;;;;;;;51.20;30.67;;;;;;;10.84;79.04;95699.69;5052240;28;20498;-78
2022/12/29 12:10:30;;;;;;;43.33;26.37;;;;;;;10.73;79.42;95684.75;5071076;28;20516;-78